MET'MAP v2.0
soon released !

Expected late october,
this new version will be
more efficient, smarter,
and hosted on a brand new
server x3 powerfull...
...and still free !


Not compatible ?
Try the mobile version !

LOG IN : | Subscribe | Disclaimer | Who is Orbifly ? |
ICAO code :

TAF - EGNM Leeds Bradford - 12 Nov 2019 06:46 UTC - Data Source NOAA   


- Airport Elevation : 681 ft
- IATA code : LBA
- No reported NOTAMs.


EGNM - Leeds Bradford

Latest METAR recorded : 2015/08/11 07:50 EGNM 110750Z 25008KT 9999 FEW014 13/11 Q1019
TAF TAF EGNM
Valid from the 12 at 06:00 until the 13 at 06:00 UTC


120504Z 1206/1306 25015G25KT 9999 FEW009 SCT025
TEMPO 1206/1209 26020G35KT 7000 RA BKN012
PROB30
TEMPO 1206/1209 4000 +RA BKN008
PROB40
TEMPO 1209/1221 31017G27KT BKN012

Source NOAA
ATIS : +44 113 250 9696 (x2489)


MET'MAP, your aeronautical weather chart ! - Copyright ORBIFLY December 2007

Programming & Development : Alexandra Zaïnal
Co-Developer : Marc-Olivier Méhu
Technical & hardware support : Manuel Goepfert
Concept & Financing : Baudouin d'Aumeries